Time;durP1;ratioP1;P1;durP2;ratioP2;P2;SDS_P1;SDS_P2;PMS_P1;PMS_P2;Temp;Humidity;BMP_temperature;BMP_pressure;BME280_temperature;BME280_humidity;BME280_pressure;Samples;Min_cycle;Max_cycle;Signal;HPM_P1;HPM_P2
2022/04/14 00:00:46;;;;;;;51.42;27.42;;;;;;;9.52;100.00;101904.94;5015243;28;20033;-91
2022/04/14 00:03:11;;;;;;;52.53;26.90;;;;;;;9.54;100.00;101900.19;5015505;28;20441;-90
2022/04/14 00:05:37;;;;;;;47.90;27.30;;;;;;;9.47;100.00;101899.47;5015366;28;20041;-91
2022/04/14 00:08:03;;;;;;;52.37;28.83;;;;;;;9.48;100.00;101897.59;5013285;28;20021;-91
2022/04/14 00:10:28;;;;;;;53.43;28.63;;;;;;;9.42;100.00;101899.31;5014182;28;20029;-90
2022/04/14 00:12:53;;;;;;;47.90;26.80;;;;;;;9.39;100.00;101905.09;4996909;28;20656;-91
2022/04/14 00:15:18;;;;;;;46.93;25.97;;;;;;;9.34;100.00;101905.78;5015014;28;20044;-91
2022/04/14 00:17:44;;;;;;;48.83;26.23;;;;;;;9.29;100.00;101891.44;5013898;28;20024;-91
2022/04/14 00:20:10;;;;;;;50.90;27.10;;;;;;;9.32;100.00;101891.81;5014447;28;20108;-91
2022/04/14 00:22:36;;;;;;;47.08;26.60;;;;;;;9.30;100.00;101882.38;5014523;28;20076;-91
2022/04/14 00:25:04;;;;;;;49.03;26.20;;;;;;;9.32;100.00;101893.66;5012089;28;20022;-91
2022/04/14 00:27:36;;;;;;;47.37;27.37;;;;;;;9.24;100.00;101879.53;5379108;22;20952;-91
2022/04/14 00:30:17;;;;;;;44.45;26.20;;;;;;;9.21;100.00;101869.28;5012743;28;20440;-91
2022/04/14 00:32:42;;;;;;;45.28;26.02;;;;;;;9.23;100.00;101861.03;5013318;28;20018;-91
2022/04/14 00:35:40;;;;;;;45.83;25.80;;;;;;;9.34;100.00;101884.38;5015177;28;20028;-91
2022/04/14 00:38:20;;;;;;;50.85;26.85;;;;;;;9.32;100.00;101880.28;4974375;28;20043;-90
2022/04/14 00:40:55;;;;;;;49.15;28.23;;;;;;;9.34;100.00;101878.19;4960538;28;20634;-91
2022/04/14 00:43:52;;;;;;;53.35;28.95;;;;;;;9.29;100.00;101865.50;4972811;28;20035;-91
2022/04/14 00:46:20;;;;;;;51.15;26.70;;;;;;;9.39;100.00;101881.03;4903361;29;20520;-91
2022/04/14 01:03:10;;;;;;;45.17;26.87;;;;;;;9.28;100.00;101884.47;5061170;22;20312;-90
2022/04/14 01:05:37;;;;;;;51.05;28.55;;;;;;;9.30;100.00;101890.41;5032309;28;20029;-90
2022/04/14 01:08:03;;;;;;;53.97;27.50;;;;;;;9.26;100.00;101886.53;5028801;28;20037;-90
2022/04/14 01:10:31;;;;;;;49.90;27.40;;;;;;;9.24;100.00;101884.06;5028750;28;20028;-90
2022/04/14 01:12:57;;;;;;;49.97;28.38;;;;;;;9.23;100.00;101887.78;5026157;28;20515;-90
2022/04/14 01:17:50;;;;;;;49.45;27.38;;;;;;;9.10;100.00;101875.38;4992915;28;20054;-90
2022/04/14 01:20:43;;;;;;;57.60;31.37;;;;;;;9.15;100.00;101883.53;4992449;28;20034;-91
2022/04/14 01:23:10;;;;;;;51.72;28.77;;;;;;;9.14;100.00;101883.78;4993334;28;20081;-90
2022/04/14 01:25:36;;;;;;;50.92;29.27;;;;;;;9.14;100.00;101881.09;4992293;28;20030;-91
2022/04/14 01:28:03;;;;;;;53.80;29.42;;;;;;;9.12;100.00;101876.00;4993091;28;20481;-91
2022/04/14 01:30:29;;;;;;;50.88;28.73;;;;;;;9.12;100.00;101875.16;4994099;28;20038;-91
2022/04/14 01:32:55;;;;;;;52.40;28.80;;;;;;;9.09;100.00;101879.09;4993939;28;20409;-91
2022/04/14 01:35:23;;;;;;;51.70;28.58;;;;;;;9.01;100.00;101880.22;4986427;28;20061;-90
2022/04/14 01:37:48;;;;;;;46.95;28.20;;;;;;;9.02;100.00;101881.84;4974036;28;20087;-91
2022/04/14 01:40:14;;;;;;;52.65;28.23;;;;;;;9.03;100.00;101886.16;4991062;28;20058;-91
2022/04/14 01:42:40;;;;;;;50.33;28.83;;;;;;;9.05;100.00;101886.72;4982694;28;20034;-91
2022/04/14 01:45:07;;;;;;;55.70;29.33;;;;;;;9.02;100.00;101875.66;4974406;28;20414;-91
2022/04/14 01:47:32;;;;;;;55.93;29.67;;;;;;;9.02;100.00;101881.00;4973613;28;20369;-90
2022/04/14 01:49:57;;;;;;;52.58;30.00;;;;;;;8.99;100.00;101884.13;4974093;28;20050;-91
2022/04/14 01:52:23;;;;;;;53.13;30.97;;;;;;;8.97;100.00;101891.53;4990463;28;20034;-90
2022/04/14 01:54:48;;;;;;;50.37;28.50;;;;;;;8.92;100.00;101881.53;4974384;28;20022;-91
2022/04/14 01:57:13;;;;;;;55.63;28.63;;;;;;;8.88;100.00;101881.16;4973985;28;20510;-91
2022/04/14 01:59:39;;;;;;;56.50;29.43;;;;;;;8.87;100.00;101876.84;4976406;28;20038;-90
2022/04/14 02:02:04;;;;;;;54.03;30.07;;;;;;;8.87;100.00;101879.50;4987489;28;20034;-90
2022/04/14 02:04:29;;;;;;;53.90;29.43;;;;;;;8.88;100.00;101885.66;4992561;28;20423;-91
2022/04/14 02:06:55;;;;;;;55.73;30.20;;;;;;;8.83;100.00;101889.00;4991543;28;20133;-91
2022/04/14 02:09:20;;;;;;;55.30;29.07;;;;;;;8.79;100.00;101885.97;4975847;28;20026;-91
2022/04/14 02:11:45;;;;;;;53.40;29.63;;;;;;;8.79;100.00;101887.81;4974197;28;20031;-91
2022/04/14 02:14:11;;;;;;;57.03;30.50;;;;;;;8.81;100.00;101885.72;4973254;28;20688;-90
2022/04/14 02:16:36;;;;;;;57.80;29.57;;;;;;;8.80;100.00;101889.44;4973401;28;20672;-91
2022/04/14 02:19:03;;;;;;;53.63;29.93;;;;;;;8.79;100.00;101898.50;4973176;28;20018;-90
2022/04/14 02:21:28;;;;;;;55.58;29.60;;;;;;;8.75;100.00;101891.97;4973138;28;20035;-90
2022/04/14 02:23:53;;;;;;;61.50;30.73;;;;;;;8.72;100.00;101892.41;4973003;28;20049;-90
2022/04/14 02:26:19;;;;;;;57.17;29.83;;;;;;;8.74;100.00;101893.00;4973174;28;20038;-90
2022/04/14 02:28:45;;;;;;;57.70;29.77;;;;;;;8.71;100.00;101888.09;4972291;28;20100;-89
2022/04/14 02:31:10;;;;;;;58.92;30.70;;;;;;;8.72;100.00;101897.75;4972944;28;20058;-89
2022/04/14 02:33:36;;;;;;;59.60;30.67;;;;;;;8.71;100.00;101896.91;4971866;28;20050;-89
2022/04/14 02:36:01;;;;;;;56.33;29.53;;;;;;;8.65;100.00;101897.81;4977198;28;20031;-90
2022/04/14 02:38:26;;;;;;;58.08;30.27;;;;;;;8.63;100.00;101894.53;4992829;28;20092;-90
2022/04/14 02:40:51;;;;;;;52.30;27.57;;;;;;;8.59;100.00;101904.81;4984181;28;20046;-90
2022/04/14 02:43:17;;;;;;;59.63;29.33;;;;;;;8.56;100.00;101905.28;4973808;28;20045;-89
2022/04/14 02:45:42;;;;;;;59.53;30.37;;;;;;;8.56;100.00;101902.59;4979346;28;20022;-89
2022/04/14 02:48:07;;;;;;;52.03;28.43;;;;;;;8.51;100.00;101902.44;4978955;28;20023;-89
2022/04/14 02:50:33;;;;;;;54.53;29.67;;;;;;;8.49;100.00;101896.50;4983317;28;20133;-88
2022/04/14 02:52:58;;;;;;;54.60;28.00;;;;;;;8.45;100.00;101906.75;4992911;28;20505;-90
2022/04/14 02:55:23;;;;;;;58.70;31.50;;;;;;;8.47;100.00;101911.88;4992623;28;20041;-90
2022/04/14 02:57:49;;;;;;;58.97;29.67;;;;;;;8.40;100.00;101911.94;4988614;28;20034;-89
2022/04/14 03:00:15;;;;;;;55.87;29.20;;;;;;;8.37;100.00;101896.34;4989766;28;20509;-90
2022/04/14 03:02:41;;;;;;;57.85;30.20;;;;;;;8.36;100.00;101899.22;4978540;28;20027;-90
2022/04/14 03:05:08;;;;;;;63.15;29.80;;;;;;;8.35;100.00;101898.41;4972729;28;20023;-90
2022/04/14 03:07:33;;;;;;;58.95;29.25;;;;;;;8.31;100.00;101903.38;4972905;28;20039;-90
2022/04/14 03:09:59;;;;;;;58.87;29.33;;;;;;;8.30;100.00;101900.91;4972957;28;20045;-90
2022/04/14 03:12:25;;;;;;;59.97;30.63;;;;;;;8.28;100.00;101890.44;4972938;28;20089;-90
2022/04/14 03:14:50;;;;;;;59.57;30.73;;;;;;;8.23;100.00;101895.59;4983358;28;20038;-91
2022/04/14 03:17:16;;;;;;;65.43;30.58;;;;;;;8.26;100.00;101902.38;4992937;28;20022;-94
2022/04/14 03:19:49;;;;;;;62.80;31.40;;;;;;;8.19;100.00;101891.75;4989019;28;20026;-91
2022/04/14 03:22:14;;;;;;;64.05;31.52;;;;;;;8.23;100.00;101897.47;4973154;28;20466;-89
2022/04/14 03:24:39;;;;;;;67.10;32.70;;;;;;;8.23;100.00;101900.13;4981578;28;20038;-88
2022/04/14 03:27:05;;;;;;;70.73;32.33;;;;;;;8.24;100.00;101899.91;4972658;28;20109;-89
2022/04/14 03:29:32;;;;;;;63.30;30.60;;;;;;;8.21;100.00;101910.22;4972518;28;20038;-88
2022/04/14 03:31:59;;;;;;;63.00;31.85;;;;;;;8.19;100.00;101910.44;4973367;28;20166;-89
2022/04/14 03:34:24;;;;;;;65.53;32.10;;;;;;;8.17;100.00;101912.50;4972712;28;20030;-89
2022/04/14 03:36:49;;;;;;;60.97;31.13;;;;;;;8.13;100.00;101908.63;4986543;28;20034;-89
2022/04/14 03:39:15;;;;;;;61.47;30.42;;;;;;;8.04;100.00;101910.72;4994368;28;20022;-89
2022/04/14 03:41:41;;;;;;;64.20;30.93;;;;;;;7.97;100.00;101913.44;4993519;28;20398;-89
2022/04/14 03:44:06;;;;;;;63.87;31.70;;;;;;;7.93;100.00;101908.75;4972797;28;20282;-89
2022/04/14 03:46:31;;;;;;;64.73;30.37;;;;;;;7.87;100.00;101910.38;4972367;28;20132;-89
2022/04/14 03:48:58;;;;;;;59.53;30.97;;;;;;;7.80;100.00;101917.63;4972777;28;20030;-89
2022/04/14 03:51:32;;;;;;;62.95;31.15;;;;;;;7.75;100.00;101907.59;4975256;28;20110;-89
2022/04/14 03:53:57;;;;;;;68.72;32.72;;;;;;;7.68;100.00;101888.91;4991481;28;20066;-89
2022/04/14 03:56:22;;;;;;;63.47;31.03;;;;;;;7.67;100.00;101897.16;5008051;28;20014;-89
2022/04/14 03:58:47;;;;;;;68.57;32.87;;;;;;;7.57;100.00;101902.94;4997137;28;20117;-88
2022/04/14 04:01:13;;;;;;;67.43;31.93;;;;;;;7.53;100.00;101904.38;5013785;28;20049;-89
2022/04/14 04:03:38;;;;;;;65.10;32.63;;;;;;;7.46;100.00;101895.59;5006518;28;20018;-89
2022/04/14 04:06:06;;;;;;;68.83;32.97;;;;;;;7.39;100.00;101900.97;4983437;28;20077;-94
2022/04/14 04:08:31;;;;;;;70.28;33.30;;;;;;;7.36;100.00;101899.50;4994616;28;20031;-92
2022/04/14 04:11:00;;;;;;;70.80;33.75;;;;;;;7.33;100.00;101899.13;4995998;28;20358;-91
2022/04/14 04:13:25;;;;;;;69.70;34.90;;;;;;;7.33;100.00;101897.25;4983088;28;20031;-92
2022/04/14 04:15:50;;;;;;;69.10;34.73;;;;;;;7.28;100.00;101905.88;4977683;28;20054;-90
2022/04/14 04:18:16;;;;;;;74.70;35.63;;;;;;;7.29;100.00;101904.06;4995075;28;20023;-90
2022/04/14 04:20:41;;;;;;;71.77;36.13;;;;;;;7.26;100.00;101907.13;4992408;28;20359;-90
2022/04/14 04:23:06;;;;;;;76.90;37.10;;;;;;;7.22;100.00;101911.25;4976927;28;20022;-90
2022/04/14 04:25:32;;;;;;;70.13;33.83;;;;;;;7.17;100.00;101924.38;4976907;28;20031;-92
2022/04/14 04:28:00;;;;;;;80.13;36.50;;;;;;;7.18;100.00;101921.50;4991999;28;20041;-94
2022/04/14 04:30:25;;;;;;;78.13;35.03;;;;;;;7.18;100.00;101928.66;5002985;28;20031;-93
2022/04/14 04:32:51;;;;;;;72.13;34.23;;;;;;;7.12;100.00;101930.31;5018847;28;20024;-94
2022/04/14 04:35:16;;;;;;;78.57;34.90;;;;;;;7.11;100.00;101934.00;5084587;23;20214;-93
2022/04/14 04:37:41;;;;;;;75.03;35.13;;;;;;;7.11;100.00;101934.00;5058878;28;20041;-92
2022/04/14 04:40:18;;;;;;;78.87;36.60;;;;;;;7.05;100.00;101917.00;5131976;22;20072;-93
2022/04/14 04:43:17;;;;;;;74.38;35.63;;;;;;;7.16;100.00;101933.38;4994651;28;20034;-92
2022/04/14 04:45:44;;;;;;;77.55;36.65;;;;;;;7.19;100.00;101938.31;5344953;23;20117;-92
2022/04/14 04:48:15;;;;;;;74.07;35.23;;;;;;;7.13;100.00;101930.09;5074571;22;20084;-93
2022/04/14 04:51:05;;;;;;;74.83;35.10;;;;;;;7.22;100.00;101943.22;5054669;28;20308;-94
2022/04/14 04:53:49;;;;;;;78.15;35.47;;;;;;;7.26;100.00;101931.13;5045391;28;20043;-92
2022/04/14 05:00:20;;;;;;;83.63;35.58;;;;;;;7.39;100.00;101946.28;5007323;28;20088;-93
2022/04/14 05:06:16;;;;;;;84.57;36.78;;;;;;;7.40;100.00;101934.56;5004068;28;20057;-92
2022/04/14 05:08:52;;;;;;;92.10;38.60;;;;;;;7.46;100.00;101932.94;5015173;28;20034;-92
2022/04/14 05:11:17;;;;;;;103.38;39.35;;;;;;;7.63;100.00;101951.94;5008414;28;20511;-90
2022/04/14 05:13:43;;;;;;;101.63;38.87;;;;;;;7.69;100.00;101948.44;5014952;28;20033;-91
2022/04/14 05:16:40;;;;;;;122.47;40.23;;;;;;;7.68;100.00;101941.47;5015339;28;20416;-92
2022/04/14 05:19:16;;;;;;;108.85;38.47;;;;;;;7.67;100.00;101939.84;5014252;28;20037;-92
2022/04/14 05:21:41;;;;;;;96.20;39.45;;;;;;;7.82;100.00;101956.41;5015233;28;20040;-91
2022/04/14 05:31:52;;;;;;;83.10;36.40;;;;;;;7.65;100.00;101961.41;5676645;22;20057;-92
2022/04/14 05:36:44;;;;;;;84.00;36.67;;;;;;;7.61;100.00;101962.84;5201620;22;20057;-95
2022/04/14 05:39:19;;;;;;;70.40;34.03;;;;;;;7.58;100.00;101969.41;5054028;28;20043;-91
2022/04/14 05:47:38;;;;;;;79.55;34.08;;;;;;;7.58;100.00;101980.06;5019176;22;20056;-91
2022/04/14 05:50:20;;;;;;;80.63;34.33;;;;;;;7.54;100.00;101970.88;5022438;28;20029;-91
2022/04/14 05:52:48;;;;;;;83.15;35.47;;;;;;;7.72;100.00;101988.84;5016365;28;20017;-90
2022/04/14 05:55:16;;;;;;;75.95;33.75;;;;;;;7.75;100.00;101970.78;5018191;28;20033;-91
2022/04/14 05:57:41;;;;;;;80.03;36.05;;;;;;;7.86;100.00;101980.81;5017323;28;20022;-90
2022/04/14 06:00:16;;;;;;;77.57;35.97;;;;;;;7.88;100.00;101973.41;5015316;28;20105;-90
2022/04/14 06:02:42;;;;;;;81.50;36.70;;;;;;;8.00;100.00;101982.41;5015647;28;20092;-93
2022/04/14 06:05:32;;;;;;;;;;;;;;;;;;;;;
2022/04/14 06:08:15;;;;;;;81.70;35.73;;;;;;;8.18;100.00;101984.38;5013343;28;20112;-92
2022/04/14 06:10:41;;;;;;;76.33;34.60;;;;;;;8.36;100.00;101990.03;5012864;28;20316;-90
2022/04/14 06:13:13;;;;;;;73.03;34.63;;;;;;;8.42;100.00;101994.50;5019396;28;20085;-91
2022/04/14 06:15:48;;;;;;;77.72;34.92;;;;;;;8.45;100.00;101986.06;5010042;28;20030;-91
2022/04/14 06:18:21;;;;;;;69.88;33.97;;;;;;;8.46;100.00;101983.19;5013723;28;20048;-91
2022/04/14 06:20:47;;;;;;;68.57;33.28;;;;;;;8.63;100.00;101994.19;5015013;28;20469;-90
2022/04/14 06:24:20;;;;;;;69.57;33.95;;;;;;;8.66;100.00;101994.81;5015035;28;20089;-89
2022/04/14 06:26:20;;;;;;;67.07;33.55;;;;;;;8.75;100.00;101998.88;5008499;28;20473;-89
2022/04/14 06:28:47;;;;;;;68.03;32.93;;;;;;;8.81;100.00;101994.50;5012700;28;20026;-90
2022/04/14 06:31:14;;;;;;;64.82;31.35;;;;;;;8.87;100.00;101990.94;5013613;28;20032;-91
2022/04/14 06:33:39;;;;;;;65.05;31.35;;;;;;;8.92;100.00;101991.94;5012378;28;20025;-90
2022/04/14 06:36:05;;;;;;;65.47;31.67;;;;;;;8.99;100.00;101989.22;5014758;28;20030;-89
2022/04/14 06:38:30;;;;;;;67.38;32.03;;;;;;;9.13;100.00;101989.91;5014494;28;20022;-89
2022/04/14 06:40:56;;;;;;;59.80;30.00;;;;;;;9.20;100.00;101995.22;5010538;28;20485;-93
2022/04/14 06:43:39;;;;;;;58.77;28.33;;;;;;;9.21;100.00;101986.97;5011207;28;20671;-96
2022/04/14 06:46:17;;;;;;;57.72;29.48;;;;;;;9.28;100.00;101986.09;5007504;28;20030;-89
2022/04/14 06:49:38;;;;;;;58.97;29.33;;;;;;;9.43;100.00;101994.59;5007140;28;20105;-90
2022/04/14 07:03:21;;;;;;;50.03;24.73;;;;;;;9.80;100.00;101994.59;4953468;28;20299;-89
2022/04/14 07:05:47;;;;;;;42.90;23.45;;;;;;;9.91;100.00;101998.38;4935834;29;20028;-90
2022/04/14 07:08:12;;;;;;;41.25;24.10;;;;;;;10.01;100.00;102003.22;4953827;29;20031;-90
2022/04/14 07:10:38;;;;;;;40.93;22.50;;;;;;;10.15;100.00;101999.31;4954970;29;20528;-90
2022/04/14 07:13:04;;;;;;;43.83;22.00;;;;;;;10.25;100.00;102003.28;4955376;28;20114;-89
2022/04/14 07:15:29;;;;;;;42.80;21.30;;;;;;;10.38;100.00;102005.84;4955223;28;20034;-89
2022/04/14 07:21:42;;;;;;;34.20;18.93;;;;;;;10.58;100.00;102013.59;4926605;29;20055;-89
2022/04/14 07:24:17;;;;;;;37.00;18.67;;;;;;;10.62;100.00;102000.53;4916492;29;20308;-89
2022/04/14 07:47:47;;;;;;;31.37;18.47;;;;;;;11.41;100.00;102012.06;5041623;22;20061;-89
2022/04/14 07:50:15;;;;;;;33.90;18.37;;;;;;;11.51;100.00;102018.47;5035087;28;20276;-89
2022/04/14 07:52:56;;;;;;;29.55;18.75;;;;;;;11.64;100.00;102027.31;5035439;28;20613;-90
2022/04/14 07:55:30;;;;;;;34.10;18.60;;;;;;;11.77;100.00;102026.25;5019718;28;20104;-91
2022/04/14 07:58:02;;;;;;;32.67;17.98;;;;;;;11.84;100.00;102029.66;5015676;28;20034;-90
2022/04/14 08:00:51;;;;;;;31.33;17.70;;;;;;;11.92;100.00;102029.25;5030108;28;20022;-90
2022/04/14 08:03:17;;;;;;;27.33;16.73;;;;;;;11.92;100.00;102023.88;5017160;28;20760;-90
2022/04/14 08:05:48;;;;;;;31.38;18.38;;;;;;;12.10;100.00;102035.56;5115380;23;20068;-89
2022/04/14 08:11:38;;;;;;;26.90;15.77;;;;;;;12.17;100.00;102030.88;5035520;28;20087;-91
2022/04/14 08:20:18;;;;;;;25.52;15.35;;;;;;;12.47;99.39;102029.00;5034426;28;20072;-89
2022/04/14 08:23:18;;;;;;;28.60;15.82;;;;;;;12.71;100.00;102045.81;5033373;28;20116;-92
2022/04/14 08:25:44;;;;;;;23.48;14.45;;;;;;;12.83;97.88;102037.69;5024236;28;20477;-92
2022/04/14 08:30:48;;;;;;;22.80;14.93;;;;;;;13.14;95.02;102046.25;3146242;26;20065;-90
2022/04/14 08:36:40;;;;;;;19.48;11.73;;;;;;;13.39;91.34;102043.13;5032122;22;20505;-91
2022/04/14 08:39:21;;;;;;;17.53;10.30;;;;;;;13.56;90.21;102047.69;5014196;28;20107;-91
2022/04/14 08:44:52;;;;;;;17.30;8.98;;;;;;;13.72;85.14;102027.97;5031819;28;20084;-92
2022/04/14 08:50:41;;;;;;;13.68;9.27;;;;;;;14.03;83.42;102030.25;5036508;22;20052;-89
2022/04/14 08:53:07;;;;;;;17.45;10.07;;;;;;;14.15;82.71;102038.19;5030934;28;20119;-93
2022/04/14 08:55:34;;;;;;;15.35;9.88;;;;;;;14.29;82.64;102031.34;5015696;28;20041;-95
2022/04/14 08:57:59;;;;;;;15.57;9.23;;;;;;;14.44;82.14;102035.25;5013097;28;20499;-93
2022/04/14 09:00:27;;;;;;;13.17;8.30;;;;;;;14.52;78.01;102037.50;5013010;28;20030;-95
2022/04/14 09:02:54;;;;;;;11.20;7.07;;;;;;;14.63;78.13;102041.13;5019236;28;20379;-93
2022/04/14 09:06:16;;;;;;;12.73;7.88;;;;;;;14.71;79.10;102031.78;5015298;22;20045;-94
2022/04/14 09:08:48;;;;;;;14.95;8.23;;;;;;;14.90;76.72;102045.69;4929599;29;20036;-95
2022/04/14 09:11:20;;;;;;;15.65;9.32;;;;;;;14.99;76.73;102049.56;4938246;29;20024;-93
2022/04/14 09:16:17;;;;;;;13.15;8.32;;;;;;;15.18;74.91;102036.47;5013500;28;20094;-94
2022/04/14 09:18:42;;;;;;;16.05;8.70;;;;;;;15.26;74.05;102038.69;5011664;28;20041;-89
2022/04/14 09:21:08;;;;;;;16.10;8.70;;;;;;;15.49;73.92;102039.38;5015861;28;20029;-92
2022/04/14 09:23:35;;;;;;;15.77;9.13;;;;;;;15.60;73.15;102032.94;5017086;28;20042;-90
2022/04/14 09:26:03;;;;;;;11.10;7.38;;;;;;;15.71;72.05;102033.81;5014676;28;20033;-88
2022/04/14 09:28:29;;;;;;;13.48;7.22;;;;;;;15.81;71.16;102033.03;5012352;28;20041;-88
2022/04/14 09:31:03;;;;;;;10.40;5.70;;;;;;;15.92;70.08;102033.09;5017646;28;20474;-92
2022/04/14 09:33:30;;;;;;;6.90;4.82;;;;;;;16.05;68.58;102029.94;5012019;28;20025;-90
2022/04/14 09:36:04;;;;;;;11.57;5.88;;;;;;;16.16;69.80;102031.56;4996225;28;20129;-89
2022/04/14 09:39:07;;;;;;;9.73;5.78;;;;;;;16.29;68.04;102032.97;4996778;28;20038;-88
2022/04/14 09:45:20;;;;;;;9.03;5.70;;;;;;;16.58;65.52;102024.34;5320761;22;20323;-95
2022/04/14 09:48:22;;;;;;;10.38;6.38;;;;;;;16.65;66.97;102014.06;5012880;28;20488;-95
2022/04/14 09:56:52;;;;;;;7.63;4.90;;;;;;;17.01;62.51;102015.16;5021517;22;20045;-89
2022/04/14 09:59:46;;;;;;;7.63;4.32;;;;;;;17.08;60.02;102002.97;5023467;28;20060;-87
2022/04/14 10:02:36;;;;;;;8.52;5.07;;;;;;;17.24;64.38;102009.19;5007824;28;20038;-96
2022/04/14 10:15:17;;;;;;;7.40;4.20;;;;;;;17.68;58.93;101996.84;5022167;22;20388;-92
2022/04/14 10:26:14;;;;;;;5.25;3.83;;;;;;;17.82;54.52;102012.50;5019929;28;20175;-95
2022/04/14 10:32:43;;;;;;;4.35;2.67;;;;;;;17.39;54.19;102048.94;5367999;22;20174;-91
2022/04/14 10:35:20;;;;;;;4.70;2.83;;;;;;;17.35;55.30;102037.03;5035205;28;20050;-93
2022/04/14 10:38:23;;;;;;;3.13;2.58;;;;;;;17.63;55.22;102047.53;5014822;28;20045;-93
2022/04/14 10:41:15;;;;;;;4.03;2.97;;;;;;;17.80;54.21;102048.00;5014349;28;20401;-92
2022/04/14 10:46:48;;;;;;;5.65;3.10;;;;;;;18.27;52.65;102056.75;5015845;28;20132;-94
2022/04/14 10:52:19;;;;;;;6.18;3.80;;;;;;;18.80;55.90;102044.50;5070704;22;20064;-95
2022/04/14 11:28:40;;;;;;;3.60;1.70;;;;;;;20.85;46.57;102017.78;5037881;22;20050;-93
2022/04/14 11:37:42;;;;;;;4.40;2.40;;;;;;;21.07;44.95;102038.09;5191194;22;20098;-88
2022/04/14 11:47:18;;;;;;;3.45;2.63;;;;;;;21.88;44.65;102031.38;5024637;22;20112;-92
2022/04/14 11:49:44;;;;;;;4.72;2.60;;;;;;;22.11;42.48;102009.56;5016494;28;20120;-94
2022/04/14 11:52:21;;;;;;;4.80;2.40;;;;;;;22.30;43.18;102008.59;5020409;28;20065;-95
2022/04/14 11:58:19;;;;;;;4.80;2.22;;;;;;;22.61;39.57;102005.16;4993204;28;20089;-95
2022/04/14 12:00:47;;;;;;;3.10;2.35;;;;;;;22.91;38.95;102014.50;4980786;28;20033;-93
2022/04/14 12:06:18;;;;;;;3.72;2.60;;;;;;;23.97;41.88;102018.38;5436443;22;20054;-91
2022/04/14 12:15:17;;;;;;;5.32;2.47;;;;;;;24.62;40.03;102021.25;5414895;22;20054;-93
2022/04/14 12:17:43;;;;;;;3.90;2.40;;;;;;;24.25;36.96;102014.53;5014535;28;20120;-91
2022/04/14 12:20:40;;;;;;;4.83;2.30;;;;;;;24.04;37.86;102020.63;5014450;28;20297;-91
2022/04/14 12:23:17;;;;;;;4.57;1.85;;;;;;;23.39;38.87;102023.06;5074023;22;20129;-90
2022/04/14 12:26:20;;;;;;;7.50;2.93;;;;;;;22.97;41.09;102034.28;5014660;28;20030;-90
2022/04/14 12:29:19;;;;;;;7.30;3.97;;;;;;;21.97;43.02;102027.91;5013292;28;20285;-90
2022/04/14 12:55:39;;;;;;;9.53;5.63;;;;;;;21.11;45.89;102024.69;5790315;22;20080;-93
2022/04/14 12:58:17;;;;;;;10.07;5.40;;;;;;;21.39;45.99;102033.69;5013610;28;20289;-94
2022/04/14 13:00:44;;;;;;;11.20;5.20;;;;;;;21.46;45.10;102033.28;5014232;28;20120;-89
2022/04/14 13:05:43;;;;;;;9.65;5.72;;;;;;;22.05;45.63;102017.06;5013782;28;20405;-91
2022/04/14 13:08:35;;;;;;;17.08;6.35;;;;;;;22.13;45.58;102020.19;5016159;28;20048;-91
2022/04/14 13:11:38;;;;;;;10.50;5.93;;;;;;;22.14;44.64;102019.88;5012732;28;20045;-90
2022/04/14 13:14:24;;;;;;;10.00;6.13;;;;;;;21.53;46.62;102021.97;5014884;28;20289;-91
2022/04/14 13:17:14;;;;;;;12.40;6.30;;;;;;;21.17;46.67;102020.75;5012394;28;20061;-92
2022/04/14 13:19:41;;;;;;;10.00;6.15;;;;;;;20.90;46.98;102027.75;5012249;28;20029;-91
2022/04/14 13:22:12;;;;;;;15.13;5.85;;;;;;;20.89;48.03;102031.59;5011984;28;20080;-92
2022/04/14 13:24:38;;;;;;;11.50;5.68;;;;;;;20.68;47.12;102028.38;5013125;28;20464;-89
2022/04/14 13:27:03;;;;;;;10.07;5.40;;;;;;;20.41;47.46;102038.06;5013357;28;20081;-90
2022/04/14 13:29:28;;;;;;;10.77;5.60;;;;;;;20.19;47.78;102016.88;5005676;28;20019;-90
2022/04/14 13:31:53;;;;;;;8.73;5.60;;;;;;;20.43;48.28;102016.78;4992790;28;20092;-87
2022/04/14 13:34:19;;;;;;;10.75;5.93;;;;;;;20.76;48.34;102021.47;4993082;28;20026;-85
2022/04/14 13:36:46;;;;;;;11.43;6.00;;;;;;;21.17;47.03;102027.00;5008669;28;20026;-85
2022/04/14 13:39:11;;;;;;;12.38;5.57;;;;;;;21.63;45.39;102028.06;5011046;28;20030;-86
2022/04/14 13:41:37;;;;;;;7.70;5.63;;;;;;;22.19;43.63;102032.56;5012266;28;20018;-87
2022/04/14 13:44:04;;;;;;;7.73;5.17;;;;;;;22.93;42.80;102027.84;5011386;28;20029;-85
2022/04/14 13:46:30;;;;;;;10.53;5.40;;;;;;;23.28;40.66;102025.28;5012355;28;20304;-85
2022/04/14 13:48:57;;;;;;;8.88;5.20;;;;;;;23.50;41.96;102024.38;5008302;28;20026;-86
2022/04/14 13:51:24;;;;;;;9.35;5.43;;;;;;;23.47;40.36;102018.75;5008723;28;20433;-86
2022/04/14 13:53:49;;;;;;;8.18;5.00;;;;;;;23.08;40.18;102021.97;5011967;28;20022;-85
2022/04/14 13:56:15;;;;;;;6.73;4.70;;;;;;;22.54;40.03;102019.25;5012181;28;20032;-86
2022/04/14 13:58:41;;;;;;;9.02;3.95;;;;;;;22.06;41.61;102026.88;5011043;28;20083;-87
2022/04/14 14:01:07;;;;;;;6.50;4.43;;;;;;;21.93;41.61;102027.72;5011028;28;20037;-88
2022/04/14 14:03:33;;;;;;;12.95;4.75;;;;;;;21.59;42.47;102029.72;5011698;28;20033;-88
2022/04/14 14:05:59;;;;;;;9.65;5.63;;;;;;;21.45;43.86;102029.72;5011883;28;20038;-87
2022/04/14 14:08:25;;;;;;;10.43;5.30;;;;;;;21.30;43.59;102024.59;5010232;28;20382;-88
2022/04/14 14:10:51;;;;;;;10.38;5.82;;;;;;;21.17;44.18;102029.72;5010948;28;20034;-87
2022/04/14 14:13:17;;;;;;;13.07;7.20;;;;;;;20.99;45.09;102025.97;5011921;28;20060;-87
2022/04/14 14:15:42;;;;;;;13.75;7.50;;;;;;;20.74;46.35;102021.72;5012460;28;20117;-86
2022/04/14 14:18:08;;;;;;;12.27;8.93;;;;;;;20.58;46.83;102021.19;5013148;28;20072;-88
2022/04/14 14:20:34;;;;;;;12.18;9.52;;;;;;;20.38;48.60;102020.41;5010472;28;20037;-87
2022/04/14 14:23:00;;;;;;;14.90;9.40;;;;;;;20.34;49.04;102024.03;5010730;28;20029;-87
2022/04/14 14:25:25;;;;;;;12.15;10.00;;;;;;;20.27;49.13;102022.47;5010791;28;20034;-87
2022/04/14 14:27:51;;;;;;;16.92;10.95;;;;;;;20.10;50.13;102020.25;5012134;28;20055;-85
2022/04/14 14:30:16;;;;;;;16.10;11.60;;;;;;;20.28;49.60;102018.66;5009786;28;20041;-87
2022/04/14 14:32:41;;;;;;;15.17;11.67;;;;;;;20.50;49.52;102022.69;5010841;28;20025;-87
2022/04/14 14:35:13;;;;;;;19.30;12.40;;;;;;;20.63;49.26;102026.56;5011556;28;20028;-86
2022/04/14 14:37:39;;;;;;;16.50;12.00;;;;;;;20.56;48.59;102023.41;5012018;28;20052;-86
2022/04/14 14:40:07;;;;;;;16.75;11.48;;;;;;;20.61;49.14;102027.94;5008904;28;20548;-86
2022/04/14 14:42:32;;;;;;;15.45;12.00;;;;;;;20.66;48.26;102022.44;5009790;28;20061;-87
2022/04/14 14:44:58;;;;;;;14.53;12.43;;;;;;;20.66;46.26;102019.69;5012460;28;20029;-87
2022/04/14 14:47:23;;;;;;;13.68;10.60;;;;;;;20.55;45.94;102017.13;5010788;28;20144;-87
2022/04/14 14:49:48;;;;;;;15.03;11.07;;;;;;;20.78;46.86;102016.53;5008400;28;20029;-88
2022/04/14 14:52:14;;;;;;;14.27;11.67;;;;;;;21.00;46.48;102015.88;5011508;28;20026;-87
2022/04/14 14:54:39;;;;;;;13.90;10.50;;;;;;;21.38;45.84;102021.16;5019082;22;20121;-87
2022/04/14 14:57:05;;;;;;;11.45;10.25;;;;;;;21.50;45.26;102009.75;5011530;28;20054;-87
2022/04/14 14:59:32;;;;;;;17.47;12.67;;;;;;;21.40;46.75;102018.13;5008034;28;20030;-85
2022/04/14 15:01:57;;;;;;;14.20;11.48;;;;;;;20.99;46.92;102016.97;5008147;28;20029;-89
2022/04/14 15:04:23;;;;;;;13.30;11.30;;;;;;;20.65;47.93;102015.34;5010822;28;20042;-88
2022/04/14 15:06:49;;;;;;;12.63;10.90;;;;;;;20.41;49.71;102022.53;4999990;28;20504;-90
2022/04/14 15:09:15;;;;;;;10.65;9.50;;;;;;;20.31;49.58;102028.13;5000180;28;20085;-90
2022/04/14 15:11:41;;;;;;;16.08;8.88;;;;;;;20.43;48.88;102022.22;5015026;28;20026;-88
2022/04/14 15:17:43;;;;;;;9.50;7.93;;;;;;;20.35;49.17;102029.16;5017832;28;20405;-90